• Join FlightAware (Why Join?)
  • Login
  • US Flag 
03:20PM EDT


 

Airport Tracker/Info


-or-


 

Live Flight TrackerFlight Track Log ✈ AUB2161 ✈ 23-Apr-2013 ✈ EDDN / NUE - EDDM / MUC

Flight Track Log - Related Links

Times and Time Zones

All times are in EDT time to prevent confusion due to time zone crossing. See the AUB2161 flight status page for this flight to view local times or setup timezone preferences in your user account.

Time Position Orientation Groundspeed Altitude Reporting Facility
EDT Latitude Longitude Course Direction KTS MPH feet Rate Location/Type
02:05PM 49.1575 11.2927 158° South  Level Estimated
02:06PM 49.1007 11.3282 158° South  Level Estimated
02:07PM 49.0438 11.3636 158° South  Level Estimated
02:08PM 48.9868 11.3989 158° South  Level Estimated
02:09PM 48.9299 11.4342 158° South  Level Estimated
02:10PM 48.8730 11.4693 158° South  Level Estimated
02:11PM 48.8161 11.5044 158° South  Level Estimated
02:12PM 48.7591 11.5394 158° South  Level Estimated
02:13PM 48.7021 11.5744 158° South  Level Estimated
02:14PM 48.6452 11.6092 158° South  Level Estimated
02:15PM 48.5882 11.6440 158° South  Level Estimated
02:16PM 48.5312 11.6787 158° South  Level Estimated
02:17PM 48.4742 11.7133 158° South  Level Estimated
02:18PM 48.4172 11.7478 158° South  Level Estimated
02:19PM 48.3601 11.7823 158° South  Level Estimated
02:20PM 48.3538 11.7861 158° South  Level Estimated
02:21PM 48.3538 11.7861 318° Northwest  Level Estimated
02:22PM 48.3538 11.7861 318° Northwest  Level Estimated
02:23PM 48.3538 11.7861 318° Northwest  Level Estimated
02:24PM 48.3538 11.7861 318° Northwest  Level Estimated
02:25PM 48.3538 11.7861 318° Northwest  Level Estimated
02:26PM 48.3538 11.7861 318° Northwest  Level Estimated
02:27PM 48.3538 11.7861 318° Northwest  Level Estimated
02:28PM 48.3538 11.7861 318° Northwest  Level Estimated
02:29PM 48.3538 11.7861 318° Northwest  Level Estimated
02:30PM 48.3538 11.7861 318° Northwest  Level Estimated
02:31PM 48.3538 11.7861 318° Northwest  Level Estimated
02:32PM 48.3538 11.7861 318° Northwest  Level Estimated
02:33PM 48.3538 11.7861 318° Northwest  Level Estimated
02:34PM 48.3538 11.7861 318° Northwest  Level Estimated
02:35PM 48.3538 11.7861 318° Northwest  Level Estimated